Upstream stations:
Downstream station:
SHEF ID: CDNT2 Canadian Rv nr Canadian, TX
STATION TYPE:
Regulating: Stage = 8.00, Flow = 5231
STAGE RIV-FLOW BAT-LOAD
ft cfs volt
Ccp-Rev Ccp-Rev Ccp-Rev
(US/Central)
05/24 00:00 1.16 34 12.17
05/24 01:00 1.17 36 12.17
05/24 02:00 1.19 38 12.17
05/24 03:00 1.19 38 12.17
05/24 04:00 1.20 39 12.17
05/24 05:00 1.23 42 12.17
05/24 06:00 1.24 43 12.17
05/24 07:00 1.28 47 12.17
05/24 08:00 1.27 46 12.17
05/24 09:00 1.27 46 12.17
05/24 10:00 1.28 47 12.17
05/24 11:00 1.27 46 12.25
05/24 12:00 1.27 46 12.25
05/24 13:00 1.28 47 12.25
05/24 14:00 1.28 47 12.25
05/24 15:00 1.29 49 12.25
05/24 16:00 1.28 47 12.25
05/24 17:00 1.28 47 12.33
05/24 18:00 1.27 46 12.25
05/24 19:00 1.28 47 12.25
05/24 20:00 1.28 47 12.25
05/24 21:00 1.28 47 12.17
05/24 22:00 1.27 46 12.17
05/24 23:00 ---- ---- ----